sensor_id;sensor_type;location;lat;lon;timestamp;pressure;altitude;pressure_sealevel;temperature;humidity
10466;BME280;5280;42.600;23.556;2023-04-09T00:02:13;93599.81;;;7.49;100.00
10466;BME280;5280;42.600;23.556;2023-04-09T00:04:39;93606.13;;;7.46;100.00
10466;BME280;5280;42.600;23.556;2023-04-09T00:07:08;93603.88;;;7.40;100.00
10466;BME280;5280;42.600;23.556;2023-04-09T00:09:35;93553.09;;;6.99;100.00
10466;BME280;5280;42.600;23.556;2023-04-09T00:12:02;93607.19;;;7.29;100.00
10466;BME280;5280;42.600;23.556;2023-04-09T00:14:28;93608.91;;;7.16;100.00
10466;BME280;5280;42.600;23.556;2023-04-09T00:16:55;93609.94;;;7.14;100.00
10466;BME280;5280;42.600;23.556;2023-04-09T00:19:22;93615.38;;;7.11;100.00
10466;BME280;5280;42.600;23.556;2023-04-09T00:21:49;93613.97;;;7.05;100.00
10466;BME280;5280;42.600;23.556;2023-04-09T00:24:18;93603.56;;;6.89;100.00
10466;BME280;5280;42.600;23.556;2023-04-09T00:26:45;93573.75;;;6.76;100.00
10466;BME280;5280;42.600;23.556;2023-04-09T00:29:12;93613.72;;;6.96;100.00
10466;BME280;5280;42.600;23.556;2023-04-09T00:31:39;93604.72;;;6.85;100.00
10466;BME280;5280;42.600;23.556;2023-04-09T00:34:05;93611.94;;;6.96;100.00
10466;BME280;5280;42.600;23.556;2023-04-09T00:36:32;93603.94;;;6.98;100.00
10466;BME280;5280;42.600;23.556;2023-04-09T00:38:59;93602.44;;;6.93;100.00
10466;BME280;5280;42.600;23.556;2023-04-09T00:41:27;93588.09;;;6.85;100.00
10466;BME280;5280;42.600;23.556;2023-04-09T00:43:55;93601.44;;;6.96;100.00
10466;BME280;5280;42.600;23.556;2023-04-09T00:46:22;93597.38;;;6.90;100.00
10466;BME280;5280;42.600;23.556;2023-04-09T00:48:48;93588.09;;;6.85;100.00
10466;BME280;5280;42.600;23.556;2023-04-09T00:51:16;93598.41;;;6.88;100.00
10466;BME280;5280;42.600;23.556;2023-04-09T00:53:42;93601.16;;;6.86;100.00
10466;BME280;5280;42.600;23.556;2023-04-09T00:56:11;93597.84;;;6.83;100.00
10466;BME280;5280;42.600;23.556;2023-04-09T00:58:40;93601.72;;;6.77;100.00
10466;BME280;5280;42.600;23.556;2023-04-09T01:01:08;93586.50;;;6.68;100.00
10466;BME280;5280;42.600;23.556;2023-04-09T01:03:35;93594.56;;;6.65;100.00
10466;BME280;5280;42.600;23.556;2023-04-09T01:06:07;93582.19;;;6.53;100.00
10466;BME280;5280;42.600;23.556;2023-04-09T01:08:42;93598.78;;;6.54;100.00
10466;BME280;5280;42.600;23.556;2023-04-09T01:11:20;93602.34;;;6.53;100.00
10466;BME280;5280;42.600;23.556;2023-04-09T01:13:56;93600.00;;;6.48;100.00
10466;BME280;5280;42.600;23.556;2023-04-09T01:16:26;93592.59;;;6.40;100.00
10466;BME280;5280;42.600;23.556;2023-04-09T01:18:57;93567.25;;;6.25;100.00
10466;BME280;5280;42.600;23.556;2023-04-09T01:21:29;93595.28;;;6.39;100.00
10466;BME280;5280;42.600;23.556;2023-04-09T01:24:05;93598.03;;;6.37;100.00
10466;BME280;5280;42.600;23.556;2023-04-09T01:26:44;93575.03;;;6.13;100.00
10466;BME280;5280;42.600;23.556;2023-04-09T01:29:14;93532.56;;;5.76;100.00
10466;BME280;5280;42.600;23.556;2023-04-09T01:31:43;93602.78;;;6.17;100.00
10466;BME280;5280;42.600;23.556;2023-04-09T01:34:12;93579.19;;;5.87;100.00
10466;BME280;5280;42.600;23.556;2023-04-09T01:36:41;93596.53;;;6.03;100.00
10466;BME280;5280;42.600;23.556;2023-04-09T01:39:10;93600.28;;;5.99;100.00
10466;BME280;5280;42.600;23.556;2023-04-09T01:41:38;93620.91;;;6.05;100.00
10466;BME280;5280;42.600;23.556;2023-04-09T01:44:07;93605.72;;;5.96;100.00
10466;BME280;5280;42.600;23.556;2023-04-09T01:46:36;93611.53;;;5.86;100.00
10466;BME280;5280;42.600;23.556;2023-04-09T01:49:05;93607.66;;;5.93;100.00
10466;BME280;5280;42.600;23.556;2023-04-09T01:51:33;93615.78;;;5.88;100.00
10466;BME280;5280;42.600;23.556;2023-04-09T01:54:00;93610.19;;;5.79;100.00
10466;BME280;5280;42.600;23.556;2023-04-09T01:56:27;93582.91;;;5.67;100.00
10466;BME280;5280;42.600;23.556;2023-04-09T01:58:54;93601.84;;;5.72;100.00
10466;BME280;5280;42.600;23.556;2023-04-09T02:01:23;93588.66;;;5.58;100.00
10466;BME280;5280;42.600;23.556;2023-04-09T02:03:55;93593.31;;;5.53;100.00
10466;BME280;5280;42.600;23.556;2023-04-09T02:06:29;93591.47;;;5.55;100.00
10466;BME280;5280;42.600;23.556;2023-04-09T02:08:59;93610.06;;;5.66;100.00
10466;BME280;5280;42.600;23.556;2023-04-09T02:11:28;93599.41;;;5.53;100.00
10466;BME280;5280;42.600;23.556;2023-04-09T02:13:55;93603.97;;;5.50;100.00
10466;BME280;5280;42.600;23.556;2023-04-09T02:16:22;93608.88;;;5.56;100.00
10466;BME280;5280;42.600;23.556;2023-04-09T02:18:53;93606.78;;;5.62;100.00
10466;BME280;5280;42.600;23.556;2023-04-09T02:21:21;93597.09;;;5.63;100.00
10466;BME280;5280;42.600;23.556;2023-04-09T02:23:48;93595.78;;;5.56;100.00
10466;BME280;5280;42.600;23.556;2023-04-09T02:26:15;93604.47;;;5.72;100.00
10466;BME280;5280;42.600;23.556;2023-04-09T02:28:41;93601.00;;;5.72;100.00
10466;BME280;5280;42.600;23.556;2023-04-09T02:31:08;93591.50;;;5.69;100.00
10466;BME280;5280;42.600;23.556;2023-04-09T02:33:35;93603.69;;;5.70;100.00
10466;BME280;5280;42.600;23.556;2023-04-09T02:36:04;93604.09;;;5.78;100.00
10466;BME280;5280;42.600;23.556;2023-04-09T02:38:31;93594.28;;;5.82;100.00
10466;BME280;5280;42.600;23.556;2023-04-09T02:40:58;93608.75;;;5.89;100.00
10466;BME280;5280;42.600;23.556;2023-04-09T02:43:24;93583.50;;;5.72;100.00
10466;BME280;5280;42.600;23.556;2023-04-09T02:45:51;93602.06;;;5.83;100.00
10466;BME280;5280;42.600;23.556;2023-04-09T02:48:18;93601.66;;;5.75;100.00
10466;BME280;5280;42.600;23.556;2023-04-09T02:50:45;93600.75;;;5.76;100.00
10466;BME280;5280;42.600;23.556;2023-04-09T02:53:13;93594.38;;;5.80;100.00
10466;BME280;5280;42.600;23.556;2023-04-09T02:55:40;93601.00;;;5.87;100.00
10466;BME280;5280;42.600;23.556;2023-04-09T02:58:07;93590.81;;;5.81;100.00
10466;BME280;5280;42.600;23.556;2023-04-09T03:00:34;93578.25;;;5.72;100.00
10466;BME280;5280;42.600;23.556;2023-04-09T03:03:00;93547.03;;;5.38;100.00
10466;BME280;5280;42.600;23.556;2023-04-09T03:05:27;93595.88;;;5.84;100.00
10466;BME280;5280;42.600;23.556;2023-04-09T03:07:54;93574.31;;;5.79;100.00
10466;BME280;5280;42.600;23.556;2023-04-09T03:10:22;93597.34;;;5.90;100.00
10466;BME280;5280;42.600;23.556;2023-04-09T03:12:49;93600.19;;;5.85;100.00
10466;BME280;5280;42.600;23.556;2023-04-09T03:15:16;93596.66;;;5.86;100.00
10466;BME280;5280;42.600;23.556;2023-04-09T03:17:44;93599.78;;;5.93;100.00
10466;BME280;5280;42.600;23.556;2023-04-09T03:20:11;93597.16;;;5.93;100.00
10466;BME280;5280;42.600;23.556;2023-04-09T03:22:38;93587.28;;;5.82;100.00
10466;BME280;5280;42.600;23.556;2023-04-09T03:25:05;93596.22;;;5.94;100.00
10466;BME280;5280;42.600;23.556;2023-04-09T03:27:34;93588.00;;;5.84;100.00
10466;BME280;5280;42.600;23.556;2023-04-09T03:30:00;93595.59;;;6.04;100.00
10466;BME280;5280;42.600;23.556;2023-04-09T03:32:27;93593.16;;;6.01;100.00
10466;BME280;5280;42.600;23.556;2023-04-09T03:34:54;93594.94;;;6.01;100.00
10466;BME280;5280;42.600;23.556;2023-04-09T03:37:21;93583.47;;;5.88;100.00
10466;BME280;5280;42.600;23.556;2023-04-09T03:39:47;93600.78;;;6.06;100.00
10466;BME280;5280;42.600;23.556;2023-04-09T03:42:14;93599.56;;;6.12;100.00
10466;BME280;5280;42.600;23.556;2023-04-09T03:44:42;93600.31;;;6.14;100.00
10466;BME280;5280;42.600;23.556;2023-04-09T03:47:09;93599.84;;;6.07;100.00
10466;BME280;5280;42.600;23.556;2023-04-09T03:49:36;93607.88;;;6.04;100.00
10466;BME280;5280;42.600;23.556;2023-04-09T03:52:03;93606.44;;;5.98;100.00
10466;BME280;5280;42.600;23.556;2023-04-09T03:54:31;93605.41;;;5.87;100.00
10466;BME280;5280;42.600;23.556;2023-04-09T03:56:58;93614.44;;;5.97;100.00
10466;BME280;5280;42.600;23.556;2023-04-09T03:59:25;93622.03;;;6.01;100.00
10466;BME280;5280;42.600;23.556;2023-04-09T04:01:53;93604.94;;;5.94;100.00
10466;BME280;5280;42.600;23.556;2023-04-09T04:04:20;93586.84;;;5.74;100.00
10466;BME280;5280;42.600;23.556;2023-04-09T04:06:47;93621.19;;;6.01;100.00
10466;BME280;5280;42.600;23.556;2023-04-09T04:09:14;93613.22;;;6.02;100.00
10466;BME280;5280;42.600;23.556;2023-04-09T04:11:41;93622.19;;;5.98;100.00
10466;BME280;5280;42.600;23.556;2023-04-09T04:14:08;93609.84;;;6.00;100.00
10466;BME280;5280;42.600;23.556;2023-04-09T04:16:35;93613.56;;;5.96;100.00
10466;BME280;5280;42.600;23.556;2023-04-09T04:19:03;93571.97;;;5.75;100.00
10466;BME280;5280;42.600;23.556;2023-04-09T04:21:30;93607.97;;;6.02;100.00
10466;BME280;5280;42.600;23.556;2023-04-09T04:23:57;93610.69;;;6.01;100.00
10466;BME280;5280;42.600;23.556;2023-04-09T04:26:24;93606.09;;;6.04;100.00
10466;BME280;5280;42.600;23.556;2023-04-09T04:28:51;93603.94;;;5.97;100.00
10466;BME280;5280;42.600;23.556;2023-04-09T04:31:17;93609.50;;;6.07;100.00
10466;BME280;5280;42.600;23.556;2023-04-09T04:33:44;93613.16;;;6.18;100.00
10466;BME280;5280;42.600;23.556;2023-04-09T04:36:13;93614.94;;;6.18;100.00
10466;BME280;5280;42.600;23.556;2023-04-09T04:38:40;93619.66;;;6.27;100.00
10466;BME280;5280;42.600;23.556;2023-04-09T04:41:09;93623.28;;;6.24;100.00
10466;BME280;5280;42.600;23.556;2023-04-09T04:43:35;93609.13;;;6.13;100.00
10466;BME280;5280;42.600;23.556;2023-04-09T04:46:02;93626.38;;;6.17;100.00
10466;BME280;5280;42.600;23.556;2023-04-09T04:48:30;93633.88;;;6.23;100.00
10466;BME280;5280;42.600;23.556;2023-04-09T04:50:58;93625.06;;;6.24;100.00
10466;BME280;5280;42.600;23.556;2023-04-09T04:53:26;93626.75;;;6.25;100.00
10466;BME280;5280;42.600;23.556;2023-04-09T04:55:53;93623.88;;;6.29;100.00
10466;BME280;5280;42.600;23.556;2023-04-09T04:58:20;93631.31;;;6.37;100.00
10466;BME280;5280;42.600;23.556;2023-04-09T05:00:47;93624.16;;;6.39;100.00
10466;BME280;5280;42.600;23.556;2023-04-09T05:03:14;93621.91;;;6.33;100.00
10466;BME280;5280;42.600;23.556;2023-04-09T05:05:41;93623.03;;;6.43;100.00
10466;BME280;5280;42.600;23.556;2023-04-09T05:08:08;93627.56;;;6.41;100.00
10466;BME280;5280;42.600;23.556;2023-04-09T05:10:39;93633.19;;;6.49;100.00
10466;BME280;5280;42.600;23.556;2023-04-09T05:13:06;93635.44;;;6.55;100.00
10466;BME280;5280;42.600;23.556;2023-04-09T05:15:36;93637.59;;;6.48;100.00
10466;BME280;5280;42.600;23.556;2023-04-09T05:18:03;93639.78;;;6.56;100.00
10466;BME280;5280;42.600;23.556;2023-04-09T05:20:31;93635.94;;;6.47;100.00
10466;BME280;5280;42.600;23.556;2023-04-09T05:22:58;93648.19;;;6.47;100.00
10466;BME280;5280;42.600;23.556;2023-04-09T05:25:24;93654.75;;;6.40;100.00
10466;BME280;5280;42.600;23.556;2023-04-09T05:27:53;93648.56;;;6.41;100.00
10466;BME280;5280;42.600;23.556;2023-04-09T05:30:20;93645.38;;;6.50;100.00
10466;BME280;5280;42.600;23.556;2023-04-09T05:32:47;93653.44;;;6.47;100.00
10466;BME280;5280;42.600;23.556;2023-04-09T05:35:14;93652.06;;;6.56;100.00
10466;BME280;5280;42.600;23.556;2023-04-09T05:37:41;93651.78;;;6.60;100.00
10466;BME280;5280;42.600;23.556;2023-04-09T05:40:09;93647.09;;;6.65;100.00
10466;BME280;5280;42.600;23.556;2023-04-09T05:42:36;93658.25;;;6.69;100.00
10466;BME280;5280;42.600;23.556;2023-04-09T05:45:05;93642.78;;;6.64;100.00
10466;BME280;5280;42.600;23.556;2023-04-09T05:47:32;93650.84;;;6.75;100.00
10466;BME280;5280;42.600;23.556;2023-04-09T05:49:59;93648.22;;;6.75;100.00
10466;BME280;5280;42.600;23.556;2023-04-09T05:52:26;93649.94;;;6.90;100.00
10466;BME280;5280;42.600;23.556;2023-04-09T05:54:53;93645.25;;;6.96;100.00
10466;BME280;5280;42.600;23.556;2023-04-09T05:57:19;93642.41;;;6.99;100.00
10466;BME280;5280;42.600;23.556;2023-04-09T05:59:46;93595.34;;;6.81;100.00
10466;BME280;5280;42.600;23.556;2023-04-09T06:02:15;93644.94;;;7.14;100.00
10466;BME280;5280;42.600;23.556;2023-04-09T06:04:42;93647.13;;;7.22;100.00
10466;BME280;5280;42.600;23.556;2023-04-09T06:07:09;93645.97;;;7.26;100.00
10466;BME280;5280;42.600;23.556;2023-04-09T06:09:35;93654.59;;;7.42;100.00
10466;BME280;5280;42.600;23.556;2023-04-09T06:12:03;93644.22;;;7.53;100.00
10466;BME280;5280;42.600;23.556;2023-04-09T06:14:30;93646.44;;;7.73;100.00
10466;BME280;5280;42.600;23.556;2023-04-09T06:16:57;93652.53;;;7.74;100.00
10466;BME280;5280;42.600;23.556;2023-04-09T06:19:26;93659.00;;;7.83;100.00
10466;BME280;5280;42.600;23.556;2023-04-09T06:21:53;93647.19;;;7.75;100.00
10466;BME280;5280;42.600;23.556;2023-04-09T06:24:20;93640.09;;;7.49;100.00
10466;BME280;5280;42.600;23.556;2023-04-09T06:26:47;93652.97;;;7.54;100.00
10466;BME280;5280;42.600;23.556;2023-04-09T06:29:14;93664.34;;;7.54;100.00
10466;BME280;5280;42.600;23.556;2023-04-09T06:31:41;93651.56;;;7.48;100.00
10466;BME280;5280;42.600;23.556;2023-04-09T06:34:08;93660.69;;;7.57;100.00
10466;BME280;5280;42.600;23.556;2023-04-09T06:36:36;93652.66;;;7.58;100.00
10466;BME280;5280;42.600;23.556;2023-04-09T06:39:05;93650.00;;;7.72;100.00
10466;BME280;5280;42.600;23.556;2023-04-09T06:41:31;93675.53;;;7.85;100.00
10466;BME280;5280;42.600;23.556;2023-04-09T06:43:58;93677.97;;;7.88;100.00
10466;BME280;5280;42.600;23.556;2023-04-09T06:46:26;93681.81;;;7.82;100.00
10466;BME280;5280;42.600;23.556;2023-04-09T06:48:53;93677.63;;;7.79;100.00
10466;BME280;5280;42.600;23.556;2023-04-09T06:51:20;93681.56;;;7.72;100.00
10466;BME280;5280;42.600;23.556;2023-04-09T06:53:48;93611.88;;;7.24;100.00
10466;BME280;5280;42.600;23.556;2023-04-09T06:56:14;93685.91;;;7.73;100.00
10466;BME280;5280;42.600;23.556;2023-04-09T06:58:41;93669.72;;;7.79;100.00
10466;BME280;5280;42.600;23.556;2023-04-09T07:01:11;93686.06;;;7.85;100.00
10466;BME280;5280;42.600;23.556;2023-04-09T07:03:38;93679.69;;;7.74;100.00
10466;BME280;5280;42.600;23.556;2023-04-09T07:06:05;93683.75;;;7.66;100.00
10466;BME280;5280;42.600;23.556;2023-04-09T07:08:32;93681.19;;;7.78;100.00
10466;BME280;5280;42.600;23.556;2023-04-09T07:11:00;93643.84;;;7.59;100.00
10466;BME280;5280;42.600;23.556;2023-04-09T07:13:27;93687.25;;;7.93;100.00
10466;BME280;5280;42.600;23.556;2023-04-09T07:15:55;93690.00;;;7.77;100.00
10466;BME280;5280;42.600;23.556;2023-04-09T07:18:22;93686.28;;;7.82;99.12
10466;BME280;5280;42.600;23.556;2023-04-09T07:20:49;93693.03;;;7.86;100.00
10466;BME280;5280;42.600;23.556;2023-04-09T07:23:17;93681.09;;;7.80;99.67
10466;BME280;5280;42.600;23.556;2023-04-09T07:25:44;93695.09;;;7.81;98.91
10466;BME280;5280;42.600;23.556;2023-04-09T07:28:13;93694.28;;;7.93;100.00
10466;BME280;5280;42.600;23.556;2023-04-09T07:30:39;93695.59;;;8.00;97.38
10466;BME280;5280;42.600;23.556;2023-04-09T07:33:06;93692.88;;;8.01;95.83
10466;BME280;5280;42.600;23.556;2023-04-09T07:35:33;93691.09;;;8.02;98.14
10466;BME280;5280;42.600;23.556;2023-04-09T07:38:00;93680.78;;;7.85;96.79
10466;BME280;5280;42.600;23.556;2023-04-09T07:40:27;93686.63;;;7.90;96.66
10466;BME280;5280;42.600;23.556;2023-04-09T07:42:54;93694.28;;;7.93;97.48
10466;BME280;5280;42.600;23.556;2023-04-09T07:45:24;93688.41;;;7.89;97.17
10466;BME280;5280;42.600;23.556;2023-04-09T07:47:51;93691.31;;;7.85;97.41
10466;BME280;5280;42.600;23.556;2023-04-09T07:50:18;93698.25;;;8.00;97.24
10466;BME280;5280;42.600;23.556;2023-04-09T07:52:45;93697.31;;;8.01;97.13
10466;BME280;5280;42.600;23.556;2023-04-09T07:55:12;93701.91;;;7.97;98.13
10466;BME280;5280;42.600;23.556;2023-04-09T07:57:39;93689.41;;;8.01;96.64
10466;BME280;5280;42.600;23.556;2023-04-09T08:00:08;93697.56;;;8.10;97.35
10466;BME280;5280;42.600;23.556;2023-04-09T08:02:37;93696.50;;;8.13;98.78
10466;BME280;5280;42.600;23.556;2023-04-09T08:05:05;93677.09;;;8.01;97.91
10466;BME280;5280;42.600;23.556;2023-04-09T08:07:32;93686.91;;;8.12;98.10
10466;BME280;5280;42.600;23.556;2023-04-09T08:09:59;93710.19;;;8.18;98.11
10466;BME280;5280;42.600;23.556;2023-04-09T08:12:26;93686.81;;;8.13;95.26
10466;BME280;5280;42.600;23.556;2023-04-09T08:14:52;93701.38;;;8.19;96.61
10466;BME280;5280;42.600;23.556;2023-04-09T08:17:19;93702.44;;;8.16;97.25
10466;BME280;5280;42.600;23.556;2023-04-09T08:19:48;93702.13;;;8.21;95.96
10466;BME280;5280;42.600;23.556;2023-04-09T08:22:15;93698.63;;;8.20;96.78
10466;BME280;5280;42.600;23.556;2023-04-09T08:24:42;93702.41;;;8.31;95.83
10466;BME280;5280;42.600;23.556;2023-04-09T08:27:08;93692.41;;;8.36;97.61
10466;BME280;5280;42.600;23.556;2023-04-09T08:29:36;93657.88;;;8.40;97.02
10466;BME280;5280;42.600;23.556;2023-04-09T08:32:04;93686.03;;;8.65;94.64
10466;BME280;5280;42.600;23.556;2023-04-09T08:34:32;93699.13;;;8.79;92.68
10466;BME280;5280;42.600;23.556;2023-04-09T08:37:01;93690.56;;;8.63;91.34
10466;BME280;5280;42.600;23.556;2023-04-09T08:39:27;93693.03;;;8.79;91.84
10466;BME280;5280;42.600;23.556;2023-04-09T08:41:57;93684.78;;;8.71;94.08
10466;BME280;5280;42.600;23.556;2023-04-09T08:44:26;93689.75;;;8.75;91.33
10466;BME280;5280;42.600;23.556;2023-04-09T08:46:53;93684.88;;;8.69;90.44
10466;BME280;5280;42.600;23.556;2023-04-09T08:49:20;93693.34;;;8.87;91.92
10466;BME280;5280;42.600;23.556;2023-04-09T08:51:48;93677.34;;;8.90;93.19
10466;BME280;5280;42.600;23.556;2023-04-09T08:54:17;93637.47;;;8.82;91.58
10466;BME280;5280;42.600;23.556;2023-04-09T08:56:44;93692.09;;;9.30;90.43
10466;BME280;5280;42.600;23.556;2023-04-09T08:59:14;93685.75;;;9.45;91.10
10466;BME280;5280;42.600;23.556;2023-04-09T09:01:43;93678.78;;;9.44;87.09
10466;BME280;5280;42.600;23.556;2023-04-09T09:04:11;93686.16;;;9.65;86.09
10466;BME280;5280;42.600;23.556;2023-04-09T09:06:40;93661.53;;;9.64;86.14
10466;BME280;5280;42.600;23.556;2023-04-09T09:09:08;93670.56;;;9.85;86.82
10466;BME280;5280;42.600;23.556;2023-04-09T09:11:38;93675.59;;;10.01;85.97
10466;BME280;5280;42.600;23.556;2023-04-09T09:14:07;93669.97;;;10.06;82.56
10466;BME280;5280;42.600;23.556;2023-04-09T09:16:35;93668.66;;;10.11;82.33
10466;BME280;5280;42.600;23.556;2023-04-09T09:19:04;93660.03;;;10.09;83.91
10466;BME280;5280;42.600;23.556;2023-04-09T09:21:32;93672.50;;;10.20;80.76
10466;BME280;5280;42.600;23.556;2023-04-09T09:23:59;93677.97;;;10.17;79.50
10466;BME280;5280;42.600;23.556;2023-04-09T09:26:27;93633.22;;;9.79;81.14
10466;BME280;5280;42.600;23.556;2023-04-09T09:28:56;93664.03;;;10.15;84.78
10466;BME280;5280;42.600;23.556;2023-04-09T09:31:24;93646.94;;;10.31;84.95
10466;BME280;5280;42.600;23.556;2023-04-09T09:33:52;93665.78;;;10.51;82.70
10466;BME280;5280;42.600;23.556;2023-04-09T09:36:34;93649.75;;;10.76;79.40
10466;BME280;5280;42.600;23.556;2023-04-09T09:39:01;93650.84;;;10.73;78.87
10466;BME280;5280;42.600;23.556;2023-04-09T09:41:34;93641.50;;;10.81;79.89
10466;BME280;5280;42.600;23.556;2023-04-09T09:44:03;93638.00;;;10.91;81.00
10466;BME280;5280;42.600;23.556;2023-04-09T09:46:34;93625.78;;;11.01;76.70
10466;BME280;5280;42.600;23.556;2023-04-09T09:49:02;93580.09;;;10.88;76.82
10466;BME280;5280;42.600;23.556;2023-04-09T09:51:31;93619.78;;;11.21;76.51
10466;BME280;5280;42.600;23.556;2023-04-09T09:53:58;93620.75;;;11.43;75.21
10466;BME280;5280;42.600;23.556;2023-04-09T09:56:29;93614.97;;;11.60;76.60
10466;BME280;5280;42.600;23.556;2023-04-09T09:59:06;93614.47;;;11.88;73.29
10466;BME280;5280;42.600;23.556;2023-04-09T10:01:33;93613.22;;;12.15;69.63
10466;BME280;5280;42.600;23.556;2023-04-09T10:04:01;93609.63;;;12.36;69.19
10466;BME280;5280;42.600;23.556;2023-04-09T10:06:31;93607.75;;;12.27;62.04
10466;BME280;5280;42.600;23.556;2023-04-09T10:09:01;93604.25;;;12.27;62.04
10466;BME280;5280;42.600;23.556;2023-04-09T10:11:30;93591.81;;;12.38;65.01
10466;BME280;5280;42.600;23.556;2023-04-09T10:13:58;93578.47;;;12.29;64.94
10466;BME280;5280;42.600;23.556;2023-04-09T10:16:26;93603.84;;;12.63;66.63
10466;BME280;5280;42.600;23.556;2023-04-09T10:18:54;93590.59;;;12.63;62.32
10466;BME280;5280;42.600;23.556;2023-04-09T10:21:30;93605.34;;;12.77;58.39
10466;BME280;5280;42.600;23.556;2023-04-09T10:23:58;93588.34;;;12.79;60.22
10466;BME280;5280;42.600;23.556;2023-04-09T10:26:31;93595.53;;;12.88;57.57
10466;BME280;5280;42.600;23.556;2023-04-09T10:29:05;93593.38;;;12.82;59.40
10466;BME280;5280;42.600;23.556;2023-04-09T10:31:50;93579.03;;;12.85;57.68
10466;BME280;5280;42.600;23.556;2023-04-09T10:34:21;93548.44;;;12.60;54.38
10466;BME280;5280;42.600;23.556;2023-04-09T10:36:51;93554.97;;;12.77;53.22
10466;BME280;5280;42.600;23.556;2023-04-09T10:39:24;93590.22;;;13.09;53.15
10466;BME280;5280;42.600;23.556;2023-04-09T10:41:52;93596.56;;;13.18;52.22
10466;BME280;5280;42.600;23.556;2023-04-09T10:44:20;93584.66;;;13.12;50.93
10466;BME280;5280;42.600;23.556;2023-04-09T10:46:51;93581.16;;;13.42;52.14
10466;BME280;5280;42.600;23.556;2023-04-09T10:49:20;93577.13;;;13.48;50.57
10466;BME280;5280;42.600;23.556;2023-04-09T10:51:50;93576.81;;;13.41;49.77
10466;BME280;5280;42.600;23.556;2023-04-09T10:54:40;93581.69;;;13.36;51.53
10466;BME280;5280;42.600;23.556;2023-04-09T10:57:12;93524.53;;;12.81;49.75
10466;BME280;5280;42.600;23.556;2023-04-09T10:59:41;93573.91;;;13.14;50.30
10466;BME280;5280;42.600;23.556;2023-04-09T11:05:10;93557.63;;;13.07;49.20
10466;BME280;5280;42.600;23.556;2023-04-09T11:07:48;93564.72;;;13.18;50.54
10466;BME280;5280;42.600;23.556;2023-04-09T11:10:18;93573.97;;;13.23;49.50
10466;BME280;5280;42.600;23.556;2023-04-09T11:12:46;93568.81;;;13.11;49.07
10466;BME280;5280;42.600;23.556;2023-04-09T11:15:16;93569.75;;;13.21;48.00
10466;BME280;5280;42.600;23.556;2023-04-09T11:17:44;93556.03;;;13.16;48.00
10466;BME280;5280;42.600;23.556;2023-04-09T11:20:12;93547.94;;;13.17;46.79
10466;BME280;5280;42.600;23.556;2023-04-09T11:22:39;93552.41;;;13.17;45.73
10466;BME280;5280;42.600;23.556;2023-04-09T11:25:07;93568.09;;;13.20;47.19
10466;BME280;5280;42.600;23.556;2023-04-09T11:27:36;93556.66;;;13.29;48.42
10466;BME280;5280;42.600;23.556;2023-04-09T11:30:07;93546.91;;;13.29;48.31
10466;BME280;5280;42.600;23.556;2023-04-09T11:32:34;93538.38;;;13.35;46.84
10466;BME280;5280;42.600;23.556;2023-04-09T11:35:03;93557.28;;;13.42;47.47
10466;BME280;5280;42.600;23.556;2023-04-09T11:37:30;93538.94;;;13.29;45.86
10466;BME280;5280;42.600;23.556;2023-04-09T11:39:58;93538.53;;;13.34;45.05
10466;BME280;5280;42.600;23.556;2023-04-09T11:42:30;93547.31;;;13.25;45.08
10466;BME280;5280;42.600;23.556;2023-04-09T11:44:57;93533.84;;;13.17;46.06
10466;BME280;5280;42.600;23.556;2023-04-09T11:47:26;93516.94;;;13.18;46.46
10466;BME280;5280;42.600;23.556;2023-04-09T11:49:53;93546.84;;;13.20;46.37
10466;BME280;5280;42.600;23.556;2023-04-09T11:52:22;93537.41;;;13.36;48.11
10466;BME280;5280;42.600;23.556;2023-04-09T11:54:48;93533.22;;;13.34;46.01
10466;BME280;5280;42.600;23.556;2023-04-09T11:57:16;93532.63;;;13.30;45.44
10466;BME280;5280;42.600;23.556;2023-04-09T11:59:42;93506.63;;;13.15;45.99
10466;BME280;5280;42.600;23.556;2023-04-09T12:02:10;93528.88;;;13.33;46.55
10466;BME280;5280;42.600;23.556;2023-04-09T12:04:48;93523.56;;;13.33;46.34
10466;BME280;5280;42.600;23.556;2023-04-09T12:07:14;93525.34;;;13.23;46.45
10466;BME280;5280;42.600;23.556;2023-04-09T12:09:47;93531.50;;;13.03;45.53
10466;BME280;5280;42.600;23.556;2023-04-09T12:12:17;93523.38;;;12.94;46.13
10466;BME280;5280;42.600;23.556;2023-04-09T12:14:45;93527.44;;;12.99;47.40
10466;BME280;5280;42.600;23.556;2023-04-09T12:17:12;93532.78;;;13.08;46.59
10466;BME280;5280;42.600;23.556;2023-04-09T12:19:39;93516.22;;;13.16;47.02
10466;BME280;5280;42.600;23.556;2023-04-09T12:22:06;93525.31;;;13.13;47.21
10466;BME280;5280;42.600;23.556;2023-04-09T12:24:33;93521.81;;;13.13;48.78
10466;BME280;5280;42.600;23.556;2023-04-09T12:27:01;93527.69;;;13.16;49.08
10466;BME280;5280;42.600;23.556;2023-04-09T12:29:28;93516.38;;;13.14;49.21
10466;BME280;5280;42.600;23.556;2023-04-09T12:31:57;93510.16;;;13.04;48.11
10466;BME280;5280;42.600;23.556;2023-04-09T12:34:24;93519.28;;;13.11;48.66
10466;BME280;5280;42.600;23.556;2023-04-09T12:36:51;93503.72;;;13.07;49.08
10466;BME280;5280;42.600;23.556;2023-04-09T12:39:18;93518.25;;;13.03;49.26
10466;BME280;5280;42.600;23.556;2023-04-09T12:41:46;93517.31;;;12.83;48.96
10466;BME280;5280;42.600;23.556;2023-04-09T12:44:14;93496.84;;;12.64;50.06
10466;BME280;5280;42.600;23.556;2023-04-09T12:46:41;93515.94;;;12.88;51.12
10466;BME280;5280;42.600;23.556;2023-04-09T12:49:08;93515.16;;;12.98;51.37
10466;BME280;5280;42.600;23.556;2023-04-09T12:51:35;93519.78;;;13.05;50.44
10466;BME280;5280;42.600;23.556;2023-04-09T12:54:02;93512.94;;;13.03;49.75
10466;BME280;5280;42.600;23.556;2023-04-09T12:56:29;93516.19;;;12.85;50.91
10466;BME280;5280;42.600;23.556;2023-04-09T12:58:56;93516.91;;;12.87;51.43
10466;BME280;5280;42.600;23.556;2023-04-09T13:01:27;93471.72;;;12.68;51.70
10466;BME280;5280;42.600;23.556;2023-04-09T13:03:54;93505.84;;;12.82;52.10
10466;BME280;5280;42.600;23.556;2023-04-09T13:06:21;93504.41;;;12.69;51.89
10466;BME280;5280;42.600;23.556;2023-04-09T13:08:48;93514.16;;;12.68;53.53
10466;BME280;5280;42.600;23.556;2023-04-09T13:11:15;93504.88;;;12.83;53.63